sensor_id;sensor_type;location;lat;lon;timestamp;P1;durP1;ratioP1;P2;durP2;ratioP2
19291;SDS011;9779;51.756;7.450;2023-08-01T00:02:22;0.77;;;0.60;;
19291;SDS011;9779;51.756;7.450;2023-08-01T00:04:47;0.70;;;0.70;;
19291;SDS011;9779;51.756;7.450;2023-08-01T00:07:13;0.60;;;0.60;;
19291;SDS011;9779;51.756;7.450;2023-08-01T00:09:38;0.60;;;0.60;;
19291;SDS011;9779;51.756;7.450;2023-08-01T00:12:04;4.73;;;0.80;;
19291;SDS011;9779;51.756;7.450;2023-08-01T00:14:30;0.87;;;0.50;;
19291;SDS011;9779;51.756;7.450;2023-08-01T00:16:55;0.47;;;0.47;;
19291;SDS011;9779;51.756;7.450;2023-08-01T00:19:21;1.07;;;0.97;;
19291;SDS011;9779;51.756;7.450;2023-08-01T00:21:46;0.73;;;0.67;;
19291;SDS011;9779;51.756;7.450;2023-08-01T00:24:12;0.50;;;0.50;;
19291;SDS011;9779;51.756;7.450;2023-08-01T00:26:38;0.50;;;0.50;;
19291;SDS011;9779;51.756;7.450;2023-08-01T00:29:03;1.83;;;0.53;;
19291;SDS011;9779;51.756;7.450;2023-08-01T00:31:29;0.47;;;0.47;;
19291;SDS011;9779;51.756;7.450;2023-08-01T00:33:54;0.60;;;0.60;;
19291;SDS011;9779;51.756;7.450;2023-08-01T00:36:20;0.40;;;0.40;;
19291;SDS011;9779;51.756;7.450;2023-08-01T00:38:46;0.50;;;0.50;;
19291;SDS011;9779;51.756;7.450;2023-08-01T00:41:12;0.40;;;0.40;;
19291;SDS011;9779;51.756;7.450;2023-08-01T00:43:37;0.77;;;0.50;;
19291;SDS011;9779;51.756;7.450;2023-08-01T00:46:03;0.50;;;0.50;;
19291;SDS011;9779;51.756;7.450;2023-08-01T00:48:31;0.60;;;0.60;;
19291;SDS011;9779;51.756;7.450;2023-08-01T00:50:57;0.60;;;0.60;;
19291;SDS011;9779;51.756;7.450;2023-08-01T00:53:24;0.73;;;0.70;;
19291;SDS011;9779;51.756;7.450;2023-08-01T00:55:53;0.50;;;0.50;;
19291;SDS011;9779;51.756;7.450;2023-08-01T00:58:20;0.50;;;0.50;;
19291;SDS011;9779;51.756;7.450;2023-08-01T01:00:45;4.27;;;0.70;;
19291;SDS011;9779;51.756;7.450;2023-08-01T01:03:12;1.43;;;0.80;;
19291;SDS011;9779;51.756;7.450;2023-08-01T01:05:38;2.90;;;0.60;;
19291;SDS011;9779;51.756;7.450;2023-08-01T01:08:11;0.70;;;0.53;;
19291;SDS011;9779;51.756;7.450;2023-08-01T01:10:36;0.80;;;0.67;;
19291;SDS011;9779;51.756;7.450;2023-08-01T01:13:02;1.03;;;0.60;;
19291;SDS011;9779;51.756;7.450;2023-08-01T01:15:28;0.80;;;0.60;;
19291;SDS011;9779;51.756;7.450;2023-08-01T01:17:53;1.90;;;0.60;;
19291;SDS011;9779;51.756;7.450;2023-08-01T01:20:20;0.60;;;0.60;;
19291;SDS011;9779;51.756;7.450;2023-08-01T01:22:50;0.67;;;0.67;;
19291;SDS011;9779;51.756;7.450;2023-08-01T01:25:18;1.07;;;0.70;;
19291;SDS011;9779;51.756;7.450;2023-08-01T01:27:47;0.70;;;0.70;;
19291;SDS011;9779;51.756;7.450;2023-08-01T01:30:14;0.70;;;0.70;;
19291;SDS011;9779;51.756;7.450;2023-08-01T01:32:41;1.40;;;1.30;;
19291;SDS011;9779;51.756;7.450;2023-08-01T01:35:07;1.17;;;0.70;;
19291;SDS011;9779;51.756;7.450;2023-08-01T01:37:32;0.63;;;0.63;;
19291;SDS011;9779;51.756;7.450;2023-08-01T01:39:58;0.87;;;0.87;;
19291;SDS011;9779;51.756;7.450;2023-08-01T01:42:23;2.53;;;0.70;;
19291;SDS011;9779;51.756;7.450;2023-08-01T01:44:49;1.87;;;0.90;;
19291;SDS011;9779;51.756;7.450;2023-08-01T01:47:14;0.70;;;0.70;;
19291;SDS011;9779;51.756;7.450;2023-08-01T01:49:40;5.10;;;0.80;;
19291;SDS011;9779;51.756;7.450;2023-08-01T01:52:06;2.70;;;0.80;;
19291;SDS011;9779;51.756;7.450;2023-08-01T01:54:31;0.60;;;0.60;;
19291;SDS011;9779;51.756;7.450;2023-08-01T01:56:57;0.70;;;0.70;;
19291;SDS011;9779;51.756;7.450;2023-08-01T01:59:22;1.33;;;0.97;;
19291;SDS011;9779;51.756;7.450;2023-08-01T02:01:48;2.00;;;0.90;;
19291;SDS011;9779;51.756;7.450;2023-08-01T02:04:13;1.07;;;0.67;;
19291;SDS011;9779;51.756;7.450;2023-08-01T02:06:39;2.67;;;1.00;;
19291;SDS011;9779;51.756;7.450;2023-08-01T02:09:05;1.70;;;0.97;;
19291;SDS011;9779;51.756;7.450;2023-08-01T02:11:31;0.87;;;0.80;;
19291;SDS011;9779;51.756;7.450;2023-08-01T02:13:56;1.77;;;0.90;;
19291;SDS011;9779;51.756;7.450;2023-08-01T02:16:22;1.10;;;1.00;;
19291;SDS011;9779;51.756;7.450;2023-08-01T02:18:47;2.80;;;1.30;;
19291;SDS011;9779;51.756;7.450;2023-08-01T02:21:13;1.47;;;1.37;;
19291;SDS011;9779;51.756;7.450;2023-08-01T02:23:39;3.57;;;1.63;;
19291;SDS011;9779;51.756;7.450;2023-08-01T02:26:04;1.80;;;1.30;;
19291;SDS011;9779;51.756;7.450;2023-08-01T02:28:31;1.40;;;1.30;;
19291;SDS011;9779;51.756;7.450;2023-08-01T02:30:56;1.13;;;1.10;;
19291;SDS011;9779;51.756;7.450;2023-08-01T02:33:21;1.73;;;1.30;;
19291;SDS011;9779;51.756;7.450;2023-08-01T02:35:47;2.50;;;1.30;;
19291;SDS011;9779;51.756;7.450;2023-08-01T02:38:13;3.50;;;2.00;;
19291;SDS011;9779;51.756;7.450;2023-08-01T02:40:38;1.40;;;1.23;;
19291;SDS011;9779;51.756;7.450;2023-08-01T02:43:04;3.03;;;1.73;;
19291;SDS011;9779;51.756;7.450;2023-08-01T02:45:29;2.10;;;1.57;;
19291;SDS011;9779;51.756;7.450;2023-08-01T02:47:55;1.83;;;1.67;;
19291;SDS011;9779;51.756;7.450;2023-08-01T02:50:20;2.20;;;2.00;;
19291;SDS011;9779;51.756;7.450;2023-08-01T02:52:46;2.67;;;1.80;;
19291;SDS011;9779;51.756;7.450;2023-08-01T02:55:11;2.07;;;1.90;;
19291;SDS011;9779;51.756;7.450;2023-08-01T02:57:37;2.67;;;2.20;;
19291;SDS011;9779;51.756;7.450;2023-08-01T03:00:03;2.60;;;2.40;;
19291;SDS011;9779;51.756;7.450;2023-08-01T03:02:30;4.67;;;2.73;;
19291;SDS011;9779;51.756;7.450;2023-08-01T03:04:56;6.33;;;3.27;;
19291;SDS011;9779;51.756;7.450;2023-08-01T03:07:22;4.70;;;3.03;;
19291;SDS011;9779;51.756;7.450;2023-08-01T03:09:47;7.77;;;3.30;;
19291;SDS011;9779;51.756;7.450;2023-08-01T03:12:13;3.73;;;3.43;;
19291;SDS011;9779;51.756;7.450;2023-08-01T03:14:39;4.20;;;3.80;;
19291;SDS011;9779;51.756;7.450;2023-08-01T03:17:06;4.40;;;4.00;;
19291;SDS011;9779;51.756;7.450;2023-08-01T03:19:33;5.50;;;4.20;;
19291;SDS011;9779;51.756;7.450;2023-08-01T03:21:58;4.87;;;4.47;;
19291;SDS011;9779;51.756;7.450;2023-08-01T03:24:25;4.80;;;4.20;;
19291;SDS011;9779;51.756;7.450;2023-08-01T03:26:51;6.97;;;4.90;;
19291;SDS011;9779;51.756;7.450;2023-08-01T03:29:16;5.87;;;5.27;;
19291;SDS011;9779;51.756;7.450;2023-08-01T03:31:42;4.93;;;4.53;;
19291;SDS011;9779;51.756;7.450;2023-08-01T03:34:07;5.90;;;5.33;;
19291;SDS011;9779;51.756;7.450;2023-08-01T03:36:34;5.77;;;5.27;;
19291;SDS011;9779;51.756;7.450;2023-08-01T03:39:00;6.93;;;5.23;;
19291;SDS011;9779;51.756;7.450;2023-08-01T03:41:25;7.37;;;5.53;;
19291;SDS011;9779;51.756;7.450;2023-08-01T03:43:51;7.03;;;6.13;;
19291;SDS011;9779;51.756;7.450;2023-08-01T03:46:16;6.80;;;6.20;;
19291;SDS011;9779;51.756;7.450;2023-08-01T03:48:42;6.60;;;6.00;;
19291;SDS011;9779;51.756;7.450;2023-08-01T03:51:08;6.63;;;6.03;;
19291;SDS011;9779;51.756;7.450;2023-08-01T03:53:33;6.20;;;5.70;;
19291;SDS011;9779;51.756;7.450;2023-08-01T03:55:59;5.53;;;5.20;;
19291;SDS011;9779;51.756;7.450;2023-08-01T03:58:25;6.93;;;5.43;;
19291;SDS011;9779;51.756;7.450;2023-08-01T04:00:50;5.33;;;4.93;;
19291;SDS011;9779;51.756;7.450;2023-08-01T04:03:16;6.10;;;5.27;;
19291;SDS011;9779;51.756;7.450;2023-08-01T04:05:41;7.07;;;5.63;;
19291;SDS011;9779;51.756;7.450;2023-08-01T04:08:07;5.53;;;5.10;;
19291;SDS011;9779;51.756;7.450;2023-08-01T04:10:33;8.60;;;5.77;;
19291;SDS011;9779;51.756;7.450;2023-08-01T04:12:59;6.77;;;6.00;;
19291;SDS011;9779;51.756;7.450;2023-08-01T04:15:24;14.70;;;6.30;;
19291;SDS011;9779;51.756;7.450;2023-08-01T04:17:50;5.73;;;5.33;;
19291;SDS011;9779;51.756;7.450;2023-08-01T04:20:15;5.87;;;5.43;;
19291;SDS011;9779;51.756;7.450;2023-08-01T04:22:41;7.63;;;5.40;;
19291;SDS011;9779;51.756;7.450;2023-08-01T04:25:07;5.80;;;5.30;;
19291;SDS011;9779;51.756;7.450;2023-08-01T04:27:33;6.43;;;5.60;;
19291;SDS011;9779;51.756;7.450;2023-08-01T04:29:59;6.50;;;5.93;;
19291;SDS011;9779;51.756;7.450;2023-08-01T04:32:24;4.47;;;4.07;;
19291;SDS011;9779;51.756;7.450;2023-08-01T04:34:50;5.83;;;5.23;;
19291;SDS011;9779;51.756;7.450;2023-08-01T04:37:15;9.07;;;5.03;;
19291;SDS011;9779;51.756;7.450;2023-08-01T04:39:41;5.60;;;5.10;;
19291;SDS011;9779;51.756;7.450;2023-08-01T04:42:07;5.90;;;5.30;;
19291;SDS011;9779;51.756;7.450;2023-08-01T04:44:32;5.50;;;5.00;;
19291;SDS011;9779;51.756;7.450;2023-08-01T04:46:58;7.23;;;5.20;;
19291;SDS011;9779;51.756;7.450;2023-08-01T04:49:23;7.07;;;5.00;;
19291;SDS011;9779;51.756;7.450;2023-08-01T04:51:49;5.93;;;5.33;;
19291;SDS011;9779;51.756;7.450;2023-08-01T04:54:15;7.47;;;4.97;;
19291;SDS011;9779;51.756;7.450;2023-08-01T04:56:41;6.37;;;5.30;;
19291;SDS011;9779;51.756;7.450;2023-08-01T04:59:06;7.07;;;5.70;;
19291;SDS011;9779;51.756;7.450;2023-08-01T05:01:32;6.20;;;5.60;;
19291;SDS011;9779;51.756;7.450;2023-08-01T05:03:58;12.23;;;6.40;;
19291;SDS011;9779;51.756;7.450;2023-08-01T05:06:23;8.87;;;5.87;;
19291;SDS011;9779;51.756;7.450;2023-08-01T05:08:49;7.47;;;6.53;;
19291;SDS011;9779;51.756;7.450;2023-08-01T05:11:14;10.43;;;6.63;;
19291;SDS011;9779;51.756;7.450;2023-08-01T05:13:40;10.30;;;7.30;;
19291;SDS011;9779;51.756;7.450;2023-08-01T05:16:05;9.73;;;6.63;;
19291;SDS011;9779;51.756;7.450;2023-08-01T05:18:31;8.03;;;6.43;;
19291;SDS011;9779;51.756;7.450;2023-08-01T05:20:57;8.50;;;6.93;;
19291;SDS011;9779;51.756;7.450;2023-08-01T05:23:22;12.03;;;6.53;;
19291;SDS011;9779;51.756;7.450;2023-08-01T05:25:48;16.37;;;6.93;;
19291;SDS011;9779;51.756;7.450;2023-08-01T05:28:13;8.13;;;5.73;;
19291;SDS011;9779;51.756;7.450;2023-08-01T05:30:40;14.37;;;6.93;;
19291;SDS011;9779;51.756;7.450;2023-08-01T05:33:05;12.80;;;6.43;;
19291;SDS011;9779;51.756;7.450;2023-08-01T05:35:31;11.70;;;6.03;;
19291;SDS011;9779;51.756;7.450;2023-08-01T05:37:56;8.50;;;6.00;;
19291;SDS011;9779;51.756;7.450;2023-08-01T05:40:22;12.50;;;6.00;;
19291;SDS011;9779;51.756;7.450;2023-08-01T05:42:48;9.97;;;6.40;;
19291;SDS011;9779;51.756;7.450;2023-08-01T05:45:13;7.60;;;5.87;;
19291;SDS011;9779;51.756;7.450;2023-08-01T05:47:39;13.13;;;6.80;;
19291;SDS011;9779;51.756;7.450;2023-08-01T05:50:06;12.03;;;6.87;;
19291;SDS011;9779;51.756;7.450;2023-08-01T05:52:32;11.23;;;6.40;;
19291;SDS011;9779;51.756;7.450;2023-08-01T05:54:59;11.30;;;7.33;;
19291;SDS011;9779;51.756;7.450;2023-08-01T05:57:24;10.37;;;7.90;;
19291;SDS011;9779;51.756;7.450;2023-08-01T05:59:50;17.37;;;8.37;;
19291;SDS011;9779;51.756;7.450;2023-08-01T06:02:15;8.87;;;7.63;;
19291;SDS011;9779;51.756;7.450;2023-08-01T06:04:41;9.50;;;8.43;;
19291;SDS011;9779;51.756;7.450;2023-08-01T06:07:07;13.27;;;8.23;;
19291;SDS011;9779;51.756;7.450;2023-08-01T06:09:32;12.03;;;7.57;;
19291;SDS011;9779;51.756;7.450;2023-08-01T06:11:58;16.30;;;7.50;;
19291;SDS011;9779;51.756;7.450;2023-08-01T06:14:23;8.87;;;7.77;;
19291;SDS011;9779;51.756;7.450;2023-08-01T06:16:49;15.77;;;7.83;;
19291;SDS011;9779;51.756;7.450;2023-08-01T06:19:15;10.80;;;7.23;;
19291;SDS011;9779;51.756;7.450;2023-08-01T06:21:40;8.93;;;7.57;;
19291;SDS011;9779;51.756;7.450;2023-08-01T06:24:06;12.63;;;7.73;;
19291;SDS011;9779;51.756;7.450;2023-08-01T06:26:33;10.27;;;7.70;;
19291;SDS011;9779;51.756;7.450;2023-08-01T06:28:59;14.43;;;8.03;;
19291;SDS011;9779;51.756;7.450;2023-08-01T06:31:24;10.60;;;8.37;;
19291;SDS011;9779;51.756;7.450;2023-08-01T06:33:50;21.40;;;8.63;;
19291;SDS011;9779;51.756;7.450;2023-08-01T06:36:15;7.70;;;7.00;;
19291;SDS011;9779;51.756;7.450;2023-08-01T06:38:42;10.47;;;6.63;;
19291;SDS011;9779;51.756;7.450;2023-08-01T06:41:08;15.30;;;9.03;;
19291;SDS011;9779;51.756;7.450;2023-08-01T06:43:33;13.43;;;8.60;;
19291;SDS011;9779;51.756;7.450;2023-08-01T06:45:59;8.80;;;7.40;;
19291;SDS011;9779;51.756;7.450;2023-08-01T06:48:24;17.17;;;7.67;;
19291;SDS011;9779;51.756;7.450;2023-08-01T06:50:50;7.87;;;7.30;;
19291;SDS011;9779;51.756;7.450;2023-08-01T06:53:16;17.07;;;8.63;;
19291;SDS011;9779;51.756;7.450;2023-08-01T06:55:42;9.00;;;8.10;;
19291;SDS011;9779;51.756;7.450;2023-08-01T06:58:07;8.27;;;7.27;;
19291;SDS011;9779;51.756;7.450;2023-08-01T07:00:33;11.23;;;8.63;;
19291;SDS011;9779;51.756;7.450;2023-08-01T07:02:58;9.80;;;8.73;;
19291;SDS011;9779;51.756;7.450;2023-08-01T07:05:24;13.47;;;8.37;;
19291;SDS011;9779;51.756;7.450;2023-08-01T07:07:49;10.23;;;8.67;;
19291;SDS011;9779;51.756;7.450;2023-08-01T07:10:15;9.60;;;8.60;;
19291;SDS011;9779;51.756;7.450;2023-08-01T07:12:41;9.67;;;8.87;;
19291;SDS011;9779;51.756;7.450;2023-08-01T07:15:06;10.13;;;9.17;;
19291;SDS011;9779;51.756;7.450;2023-08-01T07:17:33;15.33;;;9.57;;
19291;SDS011;9779;51.756;7.450;2023-08-01T07:19:58;15.97;;;9.47;;
19291;SDS011;9779;51.756;7.450;2023-08-01T07:22:24;12.60;;;9.07;;
19291;SDS011;9779;51.756;7.450;2023-08-01T07:24:55;14.07;;;9.53;;
19291;SDS011;9779;51.756;7.450;2023-08-01T07:27:21;13.90;;;9.43;;
19291;SDS011;9779;51.756;7.450;2023-08-01T07:29:47;9.47;;;8.77;;
19291;SDS011;9779;51.756;7.450;2023-08-01T07:32:12;15.67;;;9.40;;
19291;SDS011;9779;51.756;7.450;2023-08-01T07:34:39;14.63;;;9.23;;
19291;SDS011;9779;51.756;7.450;2023-08-01T07:37:04;13.47;;;9.33;;
19291;SDS011;9779;51.756;7.450;2023-08-01T07:39:30;9.70;;;8.80;;
19291;SDS011;9779;51.756;7.450;2023-08-01T07:41:56;10.93;;;8.50;;
19291;SDS011;9779;51.756;7.450;2023-08-01T07:44:21;10.90;;;8.97;;
19291;SDS011;9779;51.756;7.450;2023-08-01T07:46:47;10.40;;;9.30;;
19291;SDS011;9779;51.756;7.450;2023-08-01T07:49:13;9.90;;;7.00;;
19291;SDS011;9779;51.756;7.450;2023-08-01T07:51:38;10.13;;;6.70;;
19291;SDS011;9779;51.756;7.450;2023-08-01T07:54:04;9.47;;;7.23;;
19291;SDS011;9779;51.756;7.450;2023-08-01T07:56:29;12.27;;;7.17;;
19291;SDS011;9779;51.756;7.450;2023-08-01T07:58:55;9.17;;;6.97;;
19291;SDS011;9779;51.756;7.450;2023-08-01T08:01:20;8.03;;;6.33;;
19291;SDS011;9779;51.756;7.450;2023-08-01T08:03:46;10.53;;;7.03;;
19291;SDS011;9779;51.756;7.450;2023-08-01T08:06:11;14.30;;;7.43;;
19291;SDS011;9779;51.756;7.450;2023-08-01T08:08:37;13.67;;;7.43;;
19291;SDS011;9779;51.756;7.450;2023-08-01T08:11:03;9.53;;;6.80;;
19291;SDS011;9779;51.756;7.450;2023-08-01T08:13:28;11.57;;;6.93;;
19291;SDS011;9779;51.756;7.450;2023-08-01T08:15:57;6.90;;;6.27;;
19291;SDS011;9779;51.756;7.450;2023-08-01T08:18:23;10.73;;;6.47;;
19291;SDS011;9779;51.756;7.450;2023-08-01T08:20:49;9.10;;;6.23;;
19291;SDS011;9779;51.756;7.450;2023-08-01T08:23:15;9.13;;;5.53;;
19291;SDS011;9779;51.756;7.450;2023-08-01T08:25:41;9.77;;;5.83;;
19291;SDS011;9779;51.756;7.450;2023-08-01T08:28:07;7.20;;;5.63;;
19291;SDS011;9779;51.756;7.450;2023-08-01T08:30:33;6.40;;;5.80;;
19291;SDS011;9779;51.756;7.450;2023-08-01T08:32:59;10.20;;;5.83;;
19291;SDS011;9779;51.756;7.450;2023-08-01T08:35:30;7.67;;;5.57;;
19291;SDS011;9779;51.756;7.450;2023-08-01T08:37:55;13.03;;;6.23;;
19291;SDS011;9779;51.756;7.450;2023-08-01T08:40:23;8.40;;;5.40;;
19291;SDS011;9779;51.756;7.450;2023-08-01T08:42:48;8.47;;;5.63;;
19291;SDS011;9779;51.756;7.450;2023-08-01T08:45:18;15.67;;;4.87;;
19291;SDS011;9779;51.756;7.450;2023-08-01T08:47:45;5.60;;;5.10;;
19291;SDS011;9779;51.756;7.450;2023-08-01T08:50:19;7.10;;;4.87;;
19291;SDS011;9779;51.756;7.450;2023-08-01T08:52:45;7.67;;;5.30;;
19291;SDS011;9779;51.756;7.450;2023-08-01T08:55:11;7.20;;;5.53;;
19291;SDS011;9779;51.756;7.450;2023-08-01T08:57:37;10.17;;;4.50;;
19291;SDS011;9779;51.756;7.450;2023-08-01T09:00:05;7.00;;;4.17;;
19291;SDS011;9779;51.756;7.450;2023-08-01T09:02:32;10.97;;;3.97;;
19291;SDS011;9779;51.756;7.450;2023-08-01T09:04:58;9.27;;;4.03;;
19291;SDS011;9779;51.756;7.450;2023-08-01T09:07:24;9.30;;;4.10;;
19291;SDS011;9779;51.756;7.450;2023-08-01T09:09:54;7.20;;;3.80;;
19291;SDS011;9779;51.756;7.450;2023-08-01T09:12:20;6.43;;;3.40;;
19291;SDS011;9779;51.756;7.450;2023-08-01T09:14:46;7.83;;;3.53;;
19291;SDS011;9779;51.756;7.450;2023-08-01T09:17:15;4.17;;;3.77;;
19291;SDS011;9779;51.756;7.450;2023-08-01T09:19:43;5.03;;;3.73;;
19291;SDS011;9779;51.756;7.450;2023-08-01T09:22:13;8.37;;;3.83;;
19291;SDS011;9779;51.756;7.450;2023-08-01T09:24:51;5.40;;;3.10;;
19291;SDS011;9779;51.756;7.450;2023-08-01T09:27:18;7.00;;;3.50;;
19291;SDS011;9779;51.756;7.450;2023-08-01T09:29:45;4.83;;;3.73;;
19291;SDS011;9779;51.756;7.450;2023-08-01T09:32:11;9.07;;;3.63;;
19291;SDS011;9779;51.756;7.450;2023-08-01T09:34:38;4.37;;;3.60;;
19291;SDS011;9779;51.756;7.450;2023-08-01T09:37:04;6.43;;;3.27;;
19291;SDS011;9779;51.756;7.450;2023-08-01T09:39:30;5.33;;;3.43;;
19291;SDS011;9779;51.756;7.450;2023-08-01T09:41:59;3.13;;;2.80;;
19291;SDS011;9779;51.756;7.450;2023-08-01T09:44:26;4.90;;;3.00;;
19291;SDS011;9779;51.756;7.450;2023-08-01T09:49:26;4.00;;;3.50;;
19291;SDS011;9779;51.756;7.450;2023-08-01T09:51:53;5.93;;;3.13;;
19291;SDS011;9779;51.756;7.450;2023-08-01T09:54:20;7.13;;;3.77;;
19291;SDS011;9779;51.756;7.450;2023-08-01T09:56:46;5.00;;;3.90;;
19291;SDS011;9779;51.756;7.450;2023-08-01T09:59:16;4.93;;;3.40;;
19291;SDS011;9779;51.756;7.450;2023-08-01T10:01:54;4.60;;;3.90;;
19291;SDS011;9779;51.756;7.450;2023-08-01T10:04:38;4.27;;;3.03;;
19291;SDS011;9779;51.756;7.450;2023-08-01T10:07:08;3.60;;;3.20;;
19291;SDS011;9779;51.756;7.450;2023-08-01T10:09:36;5.73;;;3.10;;
19291;SDS011;9779;51.756;7.450;2023-08-01T10:12:02;6.03;;;3.53;;
19291;SDS011;9779;51.756;7.450;2023-08-01T10:14:31;5.93;;;3.33;;
19291;SDS011;9779;51.756;7.450;2023-08-01T10:16:57;4.90;;;3.30;;
19291;SDS011;9779;51.756;7.450;2023-08-01T10:19:23;5.70;;;3.60;;
19291;SDS011;9779;51.756;7.450;2023-08-01T10:21:50;9.17;;;2.87;;
19291;SDS011;9779;51.756;7.450;2023-08-01T10:24:16;5.27;;;2.97;;
19291;SDS011;9779;51.756;7.450;2023-08-01T10:26:44;3.77;;;3.27;;
19291;SDS011;9779;51.756;7.450;2023-08-01T10:29:11;4.10;;;3.73;;
19291;SDS011;9779;51.756;7.450;2023-08-01T10:31:37;4.47;;;3.67;;
19291;SDS011;9779;51.756;7.450;2023-08-01T10:34:03;4.90;;;3.33;;
19291;SDS011;9779;51.756;7.450;2023-08-01T10:36:31;3.70;;;3.40;;
19291;SDS011;9779;51.756;7.450;2023-08-01T10:38:58;5.30;;;3.33;;
19291;SDS011;9779;51.756;7.450;2023-08-01T10:43:52;4.17;;;2.90;;
19291;SDS011;9779;51.756;7.450;2023-08-01T10:49:40;5.93;;;2.73;;
19291;SDS011;9779;51.756;7.450;2023-08-01T10:52:20;6.97;;;2.77;;
19291;SDS011;9779;51.756;7.450;2023-08-01T10:55:04;7.30;;;3.13;;
19291;SDS011;9779;51.756;7.450;2023-08-01T10:57:31;6.13;;;2.93;;
19291;SDS011;9779;51.756;7.450;2023-08-01T11:00:00;3.03;;;2.30;;
19291;SDS011;9779;51.756;7.450;2023-08-01T11:02:28;3.53;;;2.00;;
19291;SDS011;9779;51.756;7.450;2023-08-01T11:04:59;4.10;;;1.90;;
19291;SDS011;9779;51.756;7.450;2023-08-01T11:07:26;2.93;;;1.70;;
19291;SDS011;9779;51.756;7.450;2023-08-01T11:10:02;10.00;;;2.13;;
19291;SDS011;9779;51.756;7.450;2023-08-01T11:12:39;3.03;;;1.50;;
19291;SDS011;9779;51.756;7.450;2023-08-01T11:15:06;2.50;;;1.50;;
19291;SDS011;9779;51.756;7.450;2023-08-01T11:17:36;4.23;;;1.80;;
19291;SDS011;9779;51.756;7.450;2023-08-01T11:20:06;4.50;;;1.43;;
19291;SDS011;9779;51.756;7.450;2023-08-01T11:22:36;6.77;;;1.77;;
19291;SDS011;9779;51.756;7.450;2023-08-01T11:25:13;2.60;;;1.57;;
19291;SDS011;9779;51.756;7.450;2023-08-01T11:27:38;2.97;;;1.57;;
19291;SDS011;9779;51.756;7.450;2023-08-01T11:30:04;5.90;;;2.50;;
19291;SDS011;9779;51.756;7.450;2023-08-01T11:32:37;2.60;;;1.53;;
19291;SDS011;9779;51.756;7.450;2023-08-01T11:35:03;2.37;;;1.40;;
19291;SDS011;9779;51.756;7.450;2023-08-01T11:37:29;2.87;;;1.53;;
19291;SDS011;9779;51.756;7.450;2023-08-01T11:39:55;2.33;;;1.60;;
19291;SDS011;9779;51.756;7.450;2023-08-01T11:42:22;6.07;;;1.80;;
19291;SDS011;9779;51.756;7.450;2023-08-01T11:44:48;2.33;;;1.53;;
19291;SDS011;9779;51.756;7.450;2023-08-01T11:47:14;2.43;;;1.37;;
19291;SDS011;9779;51.756;7.450;2023-08-01T11:49:47;3.10;;;1.40;;
19291;SDS011;9779;51.756;7.450;2023-08-01T11:52:27;4.13;;;1.53;;
19291;SDS011;9779;51.756;7.450;2023-08-01T11:54:53;2.33;;;1.37;;
19291;SDS011;9779;51.756;7.450;2023-08-01T11:57:20;8.47;;;1.40;;
19291;SDS011;9779;51.756;7.450;2023-08-01T11:59:54;2.27;;;1.27;;
19291;SDS011;9779;51.756;7.450;2023-08-01T12:02:24;4.77;;;1.27;;
19291;SDS011;9779;51.756;7.450;2023-08-01T12:04:51;5.10;;;1.70;;
19291;SDS011;9779;51.756;7.450;2023-08-01T12:07:17;3.03;;;1.43;;
19291;SDS011;9779;51.756;7.450;2023-08-01T12:09:44;1.80;;;1.30;;
19291;SDS011;9779;51.756;7.450;2023-08-01T12:12:19;2.30;;;1.27;;
19291;SDS011;9779;51.756;7.450;2023-08-01T12:14:44;2.70;;;1.53;;
19291;SDS011;9779;51.756;7.450;2023-08-01T12:17:10;1.30;;;1.17;;
19291;SDS011;9779;51.756;7.450;2023-08-01T12:19:36;5.60;;;1.83;;
19291;SDS011;9779;51.756;7.450;2023-08-01T12:22:01;2.90;;;1.67;;
19291;SDS011;9779;51.756;7.450;2023-08-01T12:24:27;10.40;;;1.80;;
19291;SDS011;9779;51.756;7.450;2023-08-01T12:26:52;4.93;;;1.73;;
19291;SDS011;9779;51.756;7.450;2023-08-01T12:29:18;6.50;;;1.70;;
19291;SDS011;9779;51.756;7.450;2023-08-01T12:31:43;2.57;;;1.50;;
19291;SDS011;9779;51.756;7.450;2023-08-01T12:34:10;2.67;;;1.60;;
19291;SDS011;9779;51.756;7.450;2023-08-01T12:36:36;3.83;;;2.00;;
19291;SDS011;9779;51.756;7.450;2023-08-01T12:39:02;2.53;;;1.33;;
19291;SDS011;9779;51.756;7.450;2023-08-01T12:41:28;5.00;;;2.03;;
19291;SDS011;9779;51.756;7.450;2023-08-01T12:43:53;3.63;;;1.43;;
19291;SDS011;9779;51.756;7.450;2023-08-01T12:46:19;4.73;;;1.50;;
19291;SDS011;9779;51.756;7.450;2023-08-01T12:48:45;3.73;;;2.10;;
19291;SDS011;9779;51.756;7.450;2023-08-01T12:51:11;2.10;;;1.73;;
19291;SDS011;9779;51.756;7.450;2023-08-01T12:53:39;4.77;;;1.93;;
19291;SDS011;9779;51.756;7.450;2023-08-01T12:56:05;4.40;;;1.70;;
19291;SDS011;9779;51.756;7.450;2023-08-01T12:58:30;3.20;;;1.87;;
19291;SDS011;9779;51.756;7.450;2023-08-01T13:00:56;2.57;;;1.50;;
19291;SDS011;9779;51.756;7.450;2023-08-01T13:03:22;7.20;;;1.50;;
19291;SDS011;9779;51.756;7.450;2023-08-01T13:05:48;4.17;;;1.73;;
19291;SDS011;9779;51.756;7.450;2023-08-01T13:08:13;2.70;;;1.27;;
19291;SDS011;9779;51.756;7.450;2023-08-01T13:10:39;3.27;;;1.30;;
19291;SDS011;9779;51.756;7.450;2023-08-01T13:13:04;3.53;;;1.67;;
19291;SDS011;9779;51.756;7.450;2023-08-01T13:15:30;2.77;;;1.27;;
19291;SDS011;9779;51.756;7.450;2023-08-01T13:17:56;3.03;;;1.50;;
19291;SDS011;9779;51.756;7.450;2023-08-01T13:20:22;2.27;;;1.17;;
19291;SDS011;9779;51.756;7.450;2023-08-01T13:22:51;6.47;;;2.40;;
19291;SDS011;9779;51.756;7.450;2023-08-01T13:25:17;2.60;;;1.50;;
19291;SDS011;9779;51.756;7.450;2023-08-01T13:27:43;3.07;;;1.40;;
19291;SDS011;9779;51.756;7.450;2023-08-01T13:30:09;6.83;;;1.70;;
19291;SDS011;9779;51.756;7.450;2023-08-01T13:32:35;4.17;;;1.63;;
19291;SDS011;9779;51.756;7.450;2023-08-01T13:35:01;4.10;;;1.40;;
19291;SDS011;9779;51.756;7.450;2023-08-01T13:37:27;2.93;;;1.40;;
19291;SDS011;9779;51.756;7.450;2023-08-01T13:39:54;4.90;;;1.40;;
19291;SDS011;9779;51.756;7.450;2023-08-01T13:42:21;4.13;;;1.53;;
19291;SDS011;9779;51.756;7.450;2023-08-01T13:44:46;4.57;;;1.67;;
19291;SDS011;9779;51.756;7.450;2023-08-01T13:47:12;2.43;;;1.67;;
19291;SDS011;9779;51.756;7.450;2023-08-01T13:49:38;3.43;;;1.30;;
19291;SDS011;9779;51.756;7.450;2023-08-01T13:52:03;5.27;;;1.50;;
19291;SDS011;9779;51.756;7.450;2023-08-01T13:54:29;4.83;;;1.50;;
19291;SDS011;9779;51.756;7.450;2023-08-01T13:56:55;2.77;;;1.60;;
19291;SDS011;9779;51.756;7.450;2023-08-01T13:59:21;2.97;;;1.27;;
19291;SDS011;9779;51.756;7.450;2023-08-01T14:01:47;4.33;;;1.60;;
19291;SDS011;9779;51.756;7.450;2023-08-01T14:04:12;3.13;;;1.20;;
19291;SDS011;9779;51.756;7.450;2023-08-01T14:06:41;3.20;;;1.30;;
19291;SDS011;9779;51.756;7.450;2023-08-01T14:09:07;2.97;;;1.60;;
19291;SDS011;9779;51.756;7.450;2023-08-01T14:11:34;1.83;;;1.47;;
19291;SDS011;9779;51.756;7.450;2023-08-01T14:13:59;4.37;;;1.20;;
19291;SDS011;9779;51.756;7.450;2023-08-01T14:16:25;4.47;;;1.65;;
19291;SDS011;9779;51.756;7.450;2023-08-01T14:18:51;6.80;;;1.30;;
19291;SDS011;9779;51.756;7.450;2023-08-01T14:21:16;4.10;;;1.57;;
19291;SDS011;9779;51.756;7.450;2023-08-01T14:23:42;2.07;;;1.30;;
19291;SDS011;9779;51.756;7.450;2023-08-01T14:26:08;1.40;;;0.93;;
19291;SDS011;9779;51.756;7.450;2023-08-01T14:28:33;6.60;;;1.30;;
19291;SDS011;9779;51.756;7.450;2023-08-01T14:31:02;2.10;;;1.20;;
19291;SDS011;9779;51.756;7.450;2023-08-01T14:33:28;1.43;;;1.03;;
19291;SDS011;9779;51.756;7.450;2023-08-01T14:35:55;2.57;;;1.10;;
19291;SDS011;9779;51.756;7.450;2023-08-01T14:38:20;3.23;;;1.30;;
19291;SDS011;9779;51.756;7.450;2023-08-01T14:40:46;3.17;;;1.57;;
19291;SDS011;9779;51.756;7.450;2023-08-01T14:43:11;2.67;;;1.20;;
19291;SDS011;9779;51.756;7.450;2023-08-01T14:45:37;6.37;;;1.40;;
19291;SDS011;9779;51.756;7.450;2023-08-01T14:48:04;2.80;;;1.43;;
19291;SDS011;9779;51.756;7.450;2023-08-01T14:50:30;2.23;;;1.13;;
19291;SDS011;9779;51.756;7.450;2023-08-01T14:52:56;2.70;;;1.03;;
19291;SDS011;9779;51.756;7.450;2023-08-01T14:55:21;4.77;;;1.10;;
19291;SDS011;9779;51.756;7.450;2023-08-01T14:57:47;3.85;;;1.27;;
19291;SDS011;9779;51.756;7.450;2023-08-01T15:00:14;4.13;;;1.73;;
19291;SDS011;9779;51.756;7.450;2023-08-01T15:02:40;2.10;;;1.10;;
19291;SDS011;9779;51.756;7.450;2023-08-01T15:05:06;3.60;;;1.10;;